createdAt,value
2023-01-30T00:01:33.848Z,2.35
2023-01-30T00:04:06.707Z,2.44
2023-01-30T00:06:39.437Z,2.71
2023-01-30T00:09:14.049Z,2.75
2023-01-30T00:11:44.926Z,2.57
2023-01-30T00:14:18.016Z,2.46
2023-01-30T00:16:53.094Z,2.32
2023-01-30T00:19:25.635Z,2.42
2023-01-30T00:21:58.076Z,2.59
2023-01-30T00:24:30.851Z,2.48
2023-01-30T00:27:03.215Z,2.42
2023-01-30T00:29:35.711Z,2.55
2023-01-30T00:32:11.082Z,2.71
2023-01-30T00:34:46.020Z,2.72
2023-01-30T00:37:20.084Z,2.59
2023-01-30T00:39:52.520Z,2.61
2023-01-30T00:42:42.773Z,2.53
2023-01-30T00:45:33.638Z,2.46
2023-01-30T00:48:06.728Z,2.66
2023-01-30T00:50:43.616Z,2.75
2023-01-30T00:53:18.728Z,2.76
2023-01-30T00:55:53.421Z,2.62
2023-01-30T00:58:27.696Z,2.73
2023-01-30T01:01:00.031Z,2.71
2023-01-30T01:03:32.650Z,2.72
2023-01-30T01:06:06.490Z,2.82
2023-01-30T01:08:39.264Z,2.83
2023-01-30T01:11:24.522Z,2.85
2023-01-30T01:13:58.838Z,2.79
2023-01-30T01:16:36.236Z,2.64
2023-01-30T01:19:08.902Z,2.87
2023-01-30T01:21:41.323Z,3.08
2023-01-30T01:24:16.374Z,3.07
2023-01-30T01:26:49.078Z,2.88
2023-01-30T01:29:21.532Z,2.83
2023-01-30T01:31:54.059Z,2.81
2023-01-30T01:34:28.716Z,2.79
2023-01-30T01:37:01.153Z,2.90
2023-01-30T01:39:47.344Z,2.70
2023-01-30T01:42:21.004Z,2.80
2023-01-30T01:45:15.016Z,2.99
2023-01-30T01:47:55.429Z,2.81
2023-01-30T01:50:35.828Z,2.71
2023-01-30T01:53:09.786Z,2.89
2023-01-30T01:55:44.846Z,2.96
2023-01-30T01:58:20.903Z,2.95
2023-01-30T02:00:54.056Z,3.00
2023-01-30T02:03:31.297Z,3.01
2023-01-30T02:06:05.912Z,2.62
2023-01-30T02:08:41.397Z,2.71
2023-01-30T02:11:18.820Z,2.65
2023-01-30T02:13:52.862Z,2.73
2023-01-30T02:16:26.845Z,2.87
2023-01-30T02:18:59.958Z,2.95
2023-01-30T02:21:45.706Z,2.63
2023-01-30T02:24:42.184Z,2.60
2023-01-30T02:27:51.948Z,2.68
2023-01-30T02:30:58.128Z,2.64
2023-01-30T02:33:41.446Z,2.93
2023-01-30T02:36:23.448Z,2.99
2023-01-30T02:39:08.086Z,2.90
2023-01-30T02:41:50.350Z,2.63
2023-01-30T02:44:31.427Z,2.57
2023-01-30T02:47:09.399Z,2.62
2023-01-30T02:49:47.264Z,2.63
2023-01-30T02:52:20.324Z,2.62
2023-01-30T02:54:52.796Z,2.74
2023-01-30T02:57:27.376Z,2.79
2023-01-30T03:00:06.276Z,2.47
2023-01-30T03:03:07.126Z,2.55
2023-01-30T03:05:53.366Z,2.53
2023-01-30T03:08:38.798Z,2.66
2023-01-30T03:11:12.619Z,2.67
2023-01-30T03:13:55.126Z,2.77
2023-01-30T03:16:32.044Z,2.58
2023-01-30T03:19:06.475Z,2.53
2023-01-30T03:21:44.687Z,2.44
2023-01-30T03:24:18.144Z,2.51
2023-01-30T03:26:57.886Z,2.55
2023-01-30T03:29:30.603Z,2.56
2023-01-30T03:32:03.321Z,2.49
2023-01-30T03:34:36.436Z,2.55
2023-01-30T03:37:09.096Z,2.32
2023-01-30T03:39:41.918Z,2.50
2023-01-30T03:42:16.302Z,2.79
2023-01-30T03:44:49.106Z,2.77
2023-01-30T03:47:21.451Z,2.63
2023-01-30T03:49:54.876Z,2.46
2023-01-30T03:52:27.832Z,2.53
2023-01-30T03:55:00.631Z,2.53
2023-01-30T03:57:33.313Z,2.68
2023-01-30T04:00:09.895Z,2.50
2023-01-30T04:02:54.953Z,2.58
2023-01-30T04:05:28.337Z,2.65
2023-01-30T04:08:05.000Z,2.51
2023-01-30T04:10:37.730Z,2.66
2023-01-30T04:13:10.355Z,2.80
2023-01-30T04:15:42.942Z,2.30
2023-01-30T04:18:49.064Z,2.51
2023-01-30T04:21:26.177Z,2.57
2023-01-30T04:23:58.781Z,2.30
2023-01-30T04:26:31.833Z,2.37
2023-01-30T04:29:04.573Z,2.44
2023-01-30T04:31:40.717Z,2.40
2023-01-30T04:34:40.075Z,2.63
2023-01-30T04:37:12.562Z,2.38
2023-01-30T04:39:45.131Z,2.43
2023-01-30T04:42:17.941Z,2.67
2023-01-30T04:45:03.171Z,2.58
2023-01-30T04:47:38.659Z,2.36
2023-01-30T04:50:13.183Z,2.37
2023-01-30T04:52:45.654Z,2.51
2023-01-30T04:55:18.605Z,2.48
2023-01-30T04:57:51.781Z,2.54
2023-01-30T05:00:24.655Z,2.41
2023-01-30T05:03:00.814Z,2.56
2023-01-30T05:05:34.255Z,2.46
2023-01-30T05:08:07.293Z,2.35
2023-01-30T05:10:39.727Z,2.50
2023-01-30T05:13:12.312Z,2.44
2023-01-30T05:15:46.238Z,2.42
2023-01-30T05:18:18.614Z,2.50
2023-01-30T05:20:52.071Z,2.58
2023-01-30T05:23:24.439Z,2.36
2023-01-30T05:25:56.984Z,2.52
2023-01-30T05:28:30.257Z,2.59
2023-01-30T05:31:06.588Z,2.62
2023-01-30T05:33:39.393Z,2.43
2023-01-30T05:36:17.981Z,2.35
2023-01-30T05:38:53.412Z,2.40
2023-01-30T05:41:26.209Z,2.43
2023-01-30T05:43:58.582Z,2.30
2023-01-30T05:46:31.030Z,2.15
2023-01-30T05:49:04.373Z,2.38
2023-01-30T05:51:36.928Z,2.38
2023-01-30T05:54:09.347Z,2.47
2023-01-30T05:56:41.896Z,2.29
2023-01-30T05:59:15.622Z,2.45
2023-01-30T06:01:47.635Z,2.35
2023-01-30T06:04:20.132Z,2.48
2023-01-30T06:06:53.248Z,2.54
2023-01-30T06:09:25.634Z,2.53
2023-01-30T06:11:58.006Z,2.58
2023-01-30T06:14:30.569Z,2.67
2023-01-30T06:17:03.408Z,2.53
2023-01-30T06:19:36.036Z,2.64
2023-01-30T06:22:08.897Z,2.72
2023-01-30T06:24:41.683Z,2.65
2023-01-30T06:27:14.536Z,2.57
2023-01-30T06:29:49.600Z,2.61
2023-01-30T06:32:22.917Z,2.84
2023-01-30T06:34:55.858Z,2.84
2023-01-30T06:37:28.267Z,2.69
2023-01-30T06:40:00.659Z,2.80
2023-01-30T06:42:33.387Z,2.58
2023-01-30T06:45:06.877Z,2.43
2023-01-30T06:47:48.175Z,2.60
2023-01-30T06:50:22.001Z,2.40
2023-01-30T06:52:55.528Z,2.40
2023-01-30T06:55:29.672Z,2.73
2023-01-30T06:58:07.741Z,2.67
2023-01-30T07:00:42.684Z,2.69
2023-01-30T07:03:17.127Z,2.87
2023-01-30T07:05:50.123Z,2.81
2023-01-30T07:08:24.210Z,2.81
2023-01-30T07:10:57.282Z,3.01
2023-01-30T07:13:29.956Z,2.85
2023-01-30T07:16:02.600Z,2.73
2023-01-30T07:18:34.915Z,2.89
2023-01-30T07:21:07.524Z,2.99
2023-01-30T07:23:39.979Z,3.05
2023-01-30T07:26:12.783Z,3.09
2023-01-30T07:28:45.377Z,3.17
2023-01-30T07:31:18.076Z,3.15
2023-01-30T07:33:50.462Z,2.84
2023-01-30T07:36:22.952Z,3.02
2023-01-30T07:38:55.715Z,2.89
2023-01-30T07:41:28.168Z,2.93
2023-01-30T07:44:00.542Z,3.12
2023-01-30T07:46:35.221Z,2.90
2023-01-30T07:49:08.970Z,3.00
2023-01-30T07:51:41.510Z,2.94
2023-01-30T07:54:14.339Z,2.91
2023-01-30T07:56:46.935Z,2.85
2023-01-30T07:59:19.714Z,2.98
2023-01-30T08:01:52.455Z,2.84
2023-01-30T08:04:25.152Z,2.71
2023-01-30T08:06:57.539Z,2.76
2023-01-30T08:09:30.185Z,2.86
2023-01-30T08:12:02.677Z,2.83
2023-01-30T08:14:35.460Z,2.80
2023-01-30T08:17:08.474Z,2.89
2023-01-30T08:19:42.065Z,2.96
2023-01-30T08:22:15.529Z,2.93
2023-01-30T08:24:47.955Z,3.11
2023-01-30T08:27:20.532Z,2.92
2023-01-30T08:29:53.052Z,2.87
2023-01-30T08:32:25.649Z,2.93
2023-01-30T08:34:58.278Z,3.07
2023-01-30T08:37:30.750Z,3.09
2023-01-30T08:40:03.154Z,2.92
2023-01-30T08:42:35.638Z,2.83
2023-01-30T08:45:10.587Z,3.00
2023-01-30T08:47:43.425Z,2.99
2023-01-30T08:50:16.340Z,3.02
2023-01-30T08:52:48.963Z,2.98
2023-01-30T08:55:22.112Z,2.95
2023-01-30T08:57:57.166Z,3.00
2023-01-30T09:00:30.835Z,3.04
2023-01-30T09:03:03.651Z,3.14
2023-01-30T09:05:36.084Z,3.18
2023-01-30T09:08:08.690Z,3.24
2023-01-30T09:10:41.329Z,3.19
2023-01-30T09:13:15.128Z,3.19
2023-01-30T09:15:47.798Z,3.37
2023-01-30T09:18:20.329Z,3.35
2023-01-30T09:20:53.864Z,3.23
2023-01-30T09:23:28.766Z,3.08
2023-01-30T09:26:02.963Z,3.26
2023-01-30T09:28:37.041Z,3.14
2023-01-30T09:31:09.803Z,3.32
2023-01-30T09:33:42.595Z,3.41
2023-01-30T09:36:15.152Z,3.44
2023-01-30T09:38:48.103Z,3.45
2023-01-30T09:41:49.809Z,3.43
2023-01-30T09:44:42.288Z,3.57
2023-01-30T09:47:18.405Z,3.70
2023-01-30T09:50:05.112Z,3.64
2023-01-30T09:52:47.759Z,3.57
2023-01-30T09:55:23.721Z,3.43
2023-01-30T09:58:01.014Z,3.53
2023-01-30T10:00:35.914Z,3.72
2023-01-30T10:03:14.438Z,3.73
2023-01-30T10:05:50.150Z,3.71
2023-01-30T10:08:43.835Z,3.77
2023-01-30T10:11:34.000Z,3.62
2023-01-30T10:14:21.959Z,3.66
2023-01-30T10:17:06.693Z,3.75
2023-01-30T10:19:59.567Z,3.77
2023-01-30T10:22:43.942Z,3.74
2023-01-30T10:25:25.782Z,3.71
2023-01-30T10:28:02.967Z,3.78
2023-01-30T10:30:36.806Z,3.87
2023-01-30T10:33:20.513Z,3.87
2023-01-30T10:35:59.449Z,3.85
2023-01-30T10:38:37.712Z,3.96
2023-01-30T10:41:19.156Z,3.89
2023-01-30T10:43:59.862Z,3.94
2023-01-30T10:47:03.971Z,3.99
2023-01-30T10:49:45.930Z,4.00
2023-01-30T10:52:36.020Z,4.07
2023-01-30T10:55:31.539Z,4.04
2023-01-30T10:58:17.696Z,4.03
2023-01-30T11:00:57.407Z,4.09
2023-01-30T11:03:39.280Z,3.99
2023-01-30T11:06:17.683Z,4.03
2023-01-30T11:08:50.817Z,4.00
2023-01-30T11:11:35.028Z,4.29
2023-01-30T11:14:09.924Z,4.16
2023-01-30T11:16:48.470Z,4.55
2023-01-30T11:19:24.549Z,4.36
2023-01-30T11:22:01.995Z,4.27
2023-01-30T11:24:41.403Z,4.41
2023-01-30T11:27:18.820Z,4.45
2023-01-30T11:29:52.583Z,4.24
2023-01-30T11:32:28.610Z,4.35
2023-01-30T11:35:19.866Z,4.45
2023-01-30T11:37:54.974Z,4.43
2023-01-30T11:40:31.553Z,4.54
2023-01-30T11:43:12.378Z,4.62
2023-01-30T11:45:50.155Z,4.47
2023-01-30T11:48:33.485Z,4.54
2023-01-30T11:51:21.333Z,4.71
2023-01-30T11:53:58.765Z,4.78
2023-01-30T11:56:36.380Z,4.79
2023-01-30T11:59:27.816Z,4.89
2023-01-30T12:02:13.287Z,4.64
2023-01-30T12:04:51.183Z,4.81
2023-01-30T12:07:26.808Z,4.81
2023-01-30T12:10:00.550Z,4.66
2023-01-30T12:12:39.409Z,4.81
2023-01-30T12:15:21.934Z,4.81
2023-01-30T12:18:04.589Z,4.95
2023-01-30T12:20:48.062Z,5.05
2023-01-30T12:23:27.027Z,5.13
2023-01-30T12:26:06.675Z,5.15
2023-01-30T12:28:47.714Z,5.10
2023-01-30T12:31:25.852Z,5.06
2023-01-30T12:33:59.193Z,5.09
2023-01-30T12:36:43.974Z,5.47
2023-01-30T12:39:37.379Z,5.52
2023-01-30T12:42:36.913Z,5.41
2023-01-30T12:45:22.504Z,5.55
2023-01-30T12:48:22.058Z,5.76
2023-01-30T12:51:13.789Z,5.66
2023-01-30T12:53:59.605Z,5.64
2023-01-30T12:56:50.666Z,5.65
2023-01-30T12:59:28.401Z,5.75
2023-01-30T13:02:30.070Z,5.80
2023-01-30T13:05:21.577Z,5.74
2023-01-30T13:08:09.643Z,5.66
2023-01-30T13:10:49.887Z,5.64
2023-01-30T13:13:31.205Z,5.90
2023-01-30T13:16:12.929Z,5.74
2023-01-30T13:18:50.239Z,5.65
2023-01-30T13:21:29.647Z,5.78
2023-01-30T13:24:15.163Z,5.63
2023-01-30T13:26:49.926Z,5.50
2023-01-30T13:29:25.072Z,5.47
2023-01-30T13:32:01.459Z,5.44
2023-01-30T13:34:39.946Z,5.50
2023-01-30T13:37:15.272Z,5.60
2023-01-30T13:39:52.621Z,5.51
2023-01-30T13:42:34.288Z,5.62
2023-01-30T13:45:10.335Z,5.52
2023-01-30T13:48:01.960Z,5.66
2023-01-30T13:50:56.627Z,5.51
2023-01-30T13:53:36.290Z,5.32
2023-01-30T13:56:39.621Z,5.24
2023-01-30T13:59:18.777Z,5.07
2023-01-30T14:02:18.505Z,5.12
2023-01-30T14:04:53.087Z,5.22
2023-01-30T14:07:35.229Z,5.13
2023-01-30T14:10:17.393Z,5.20
2023-01-30T14:12:53.104Z,5.30
2023-01-30T14:15:29.193Z,5.40
2023-01-30T14:18:08.709Z,5.39
2023-01-30T14:20:45.888Z,5.30
2023-01-30T14:23:30.084Z,5.37
2023-01-30T14:26:03.155Z,5.37
2023-01-30T14:28:51.859Z,5.26
2023-01-30T14:31:50.922Z,5.25
2023-01-30T14:34:50.220Z,5.23
2023-01-30T14:38:01.416Z,5.28
2023-01-30T14:40:44.506Z,5.32
2023-01-30T14:43:40.123Z,5.34
2023-01-30T14:46:54.248Z,5.44
2023-01-30T14:49:34.222Z,5.37
2023-01-30T14:52:23.832Z,5.50
2023-01-30T14:54:56.286Z,5.82
2023-01-30T14:57:32.925Z,5.69
2023-01-30T15:00:18.992Z,5.63
2023-01-30T15:02:55.913Z,5.78
2023-01-30T15:05:33.940Z,5.85
2023-01-30T15:08:17.388Z,5.96
2023-01-30T15:11:11.245Z,5.77
2023-01-30T15:13:55.304Z,5.87
2023-01-30T15:16:52.002Z,5.72
2023-01-30T15:19:48.954Z,5.65
2023-01-30T15:22:29.540Z,5.89
2023-01-30T15:25:20.921Z,5.90
2023-01-30T15:28:03.148Z,5.91
2023-01-30T15:30:50.083Z,5.94
2023-01-30T15:33:30.928Z,5.78
2023-01-30T15:36:21.897Z,5.60
2023-01-30T15:39:02.140Z,5.41
2023-01-30T15:41:41.130Z,5.29
2023-01-30T15:44:55.024Z,5.30
2023-01-30T15:48:00.799Z,5.28
2023-01-30T15:50:33.324Z,5.10
2023-01-30T15:53:10.283Z,5.19
2023-01-30T15:55:45.748Z,5.30
2023-01-30T15:58:22.057Z,5.16
2023-01-30T16:00:57.771Z,5.31
2023-01-30T16:03:37.886Z,5.33
2023-01-30T16:06:24.781Z,5.35
2023-01-30T16:09:02.953Z,5.32
2023-01-30T16:11:41.721Z,5.54
2023-01-30T16:14:18.339Z,5.58
2023-01-30T16:16:52.733Z,5.55
2023-01-30T16:19:30.050Z,5.41
2023-01-30T16:22:05.918Z,5.51
2023-01-30T16:24:39.886Z,5.34
2023-01-30T16:27:21.263Z,5.19
2023-01-30T16:29:57.986Z,5.27
2023-01-30T16:32:32.118Z,5.38
2023-01-30T16:35:33.322Z,5.34
2023-01-30T16:38:19.465Z,5.17
2023-01-30T16:40:52.142Z,5.02
2023-01-30T16:43:27.354Z,4.91
2023-01-30T16:46:46.359Z,5.03
2023-01-30T16:49:22.225Z,5.20
2023-01-30T16:52:04.161Z,5.27
2023-01-30T16:54:42.449Z,5.46
2023-01-30T16:57:25.454Z,5.61
2023-01-30T16:59:58.859Z,5.62
2023-01-30T17:02:37.617Z,5.50
2023-01-30T17:05:27.939Z,5.60
2023-01-30T17:08:00.922Z,5.55
2023-01-30T17:11:04.343Z,5.56
2023-01-30T17:13:38.920Z,5.45
2023-01-30T17:16:34.252Z,5.36
2023-01-30T17:19:05.002Z,5.50
2023-01-30T17:21:45.668Z,5.64
2023-01-30T17:24:22.036Z,5.71
2023-01-30T17:26:59.332Z,5.60
2023-01-30T17:29:48.838Z,5.68
2023-01-30T17:32:21.903Z,5.59
2023-01-30T17:34:56.191Z,5.48
2023-01-30T17:37:27.405Z,5.50
2023-01-30T17:39:59.877Z,5.45
2023-01-30T17:42:32.384Z,5.49
2023-01-30T17:45:05.859Z,5.53
2023-01-30T17:47:39.095Z,5.52
2023-01-30T17:50:16.094Z,5.46
2023-01-30T17:52:49.151Z,5.60
2023-01-30T17:55:22.504Z,5.50
2023-01-30T17:57:56.822Z,5.50
2023-01-30T18:00:31.815Z,5.60
2023-01-30T18:03:04.941Z,5.50
2023-01-30T18:05:39.540Z,5.37
2023-01-30T18:08:14.523Z,5.48
2023-01-30T18:10:47.544Z,5.42
2023-01-30T18:13:20.656Z,5.52
2023-01-30T18:15:54.336Z,5.53
2023-01-30T18:18:27.048Z,5.20
2023-01-30T18:20:59.640Z,5.49
2023-01-30T18:23:32.382Z,5.58
2023-01-30T18:26:05.049Z,5.53
2023-01-30T18:28:38.102Z,5.38
2023-01-30T18:31:11.188Z,5.51
2023-01-30T18:33:46.081Z,5.49
2023-01-30T18:36:18.488Z,5.56
2023-01-30T18:38:51.917Z,5.39
2023-01-30T18:41:25.860Z,5.38
2023-01-30T18:43:59.679Z,5.42
2023-01-30T18:46:33.109Z,5.53
2023-01-30T18:49:06.513Z,5.56
2023-01-30T18:51:40.408Z,5.59
2023-01-30T18:54:12.916Z,5.46
2023-01-30T18:56:45.587Z,5.55
2023-01-30T18:59:18.177Z,5.52
2023-01-30T19:01:50.854Z,5.45
2023-01-30T19:04:23.492Z,5.59
2023-01-30T19:06:56.772Z,5.45
2023-01-30T19:09:29.646Z,5.46
2023-01-30T19:12:23.086Z,5.49
2023-01-30T19:14:55.651Z,5.49
2023-01-30T19:17:28.337Z,5.46
2023-01-30T19:20:02.512Z,5.49
2023-01-30T19:22:35.992Z,5.49
2023-01-30T19:25:10.647Z,5.49
2023-01-30T19:27:43.796Z,5.54
2023-01-30T19:30:18.165Z,5.42
2023-01-30T19:32:52.704Z,5.31
2023-01-30T19:35:25.226Z,5.38
2023-01-30T19:38:00.455Z,5.46
2023-01-30T19:40:33.657Z,5.40
2023-01-30T19:43:10.866Z,5.31
2023-01-30T19:45:44.249Z,5.32
2023-01-30T19:48:17.047Z,5.26
2023-01-30T19:50:51.158Z,5.31
2023-01-30T19:53:22.869Z,5.33
2023-01-30T19:55:55.882Z,5.35
2023-01-30T19:58:28.368Z,5.30
2023-01-30T20:01:10.019Z,5.27
2023-01-30T20:03:43.865Z,5.25
2023-01-30T20:06:18.211Z,5.25
2023-01-30T20:08:56.124Z,5.26
2023-01-30T20:11:32.140Z,5.27
2023-01-30T20:14:07.424Z,5.16
2023-01-30T20:16:42.967Z,5.26
2023-01-30T20:19:19.083Z,5.42
2023-01-30T20:21:51.561Z,5.44
2023-01-30T20:24:24.188Z,5.42
2023-01-30T20:26:56.714Z,5.43
2023-01-30T20:29:29.279Z,5.43
2023-01-30T20:32:02.359Z,5.57
2023-01-30T20:34:35.973Z,5.60
2023-01-30T20:37:08.905Z,5.48
2023-01-30T20:39:41.436Z,5.46
2023-01-30T20:42:15.891Z,5.48
2023-01-30T20:44:48.245Z,5.60
2023-01-30T20:47:20.941Z,5.60
2023-01-30T20:49:53.452Z,5.62
2023-01-30T20:52:26.283Z,5.61
2023-01-30T20:54:58.679Z,5.61
2023-01-30T20:57:31.625Z,5.67
2023-01-30T21:00:05.676Z,5.66
2023-01-30T21:02:39.303Z,5.57
2023-01-30T21:05:12.381Z,5.59
2023-01-30T21:07:45.210Z,5.62
2023-01-30T21:10:18.752Z,5.69
2023-01-30T21:12:51.776Z,5.72
2023-01-30T21:15:24.296Z,5.66
2023-01-30T21:17:57.050Z,5.69
2023-01-30T21:20:29.497Z,5.68
2023-01-30T21:23:02.471Z,5.67
2023-01-30T21:25:36.109Z,5.68
2023-01-30T21:28:09.276Z,5.56
2023-01-30T21:30:43.146Z,5.55
2023-01-30T21:33:16.700Z,5.58
2023-01-30T21:35:49.352Z,5.59
2023-01-30T21:38:40.203Z,5.61
2023-01-30T21:41:34.539Z,5.63
2023-01-30T21:44:10.656Z,5.64
2023-01-30T21:46:45.687Z,5.61
2023-01-30T21:49:19.087Z,5.70
2023-01-30T21:51:52.284Z,5.73
2023-01-30T21:54:25.507Z,5.64
2023-01-30T21:56:58.344Z,5.49
2023-01-30T21:59:32.657Z,5.70
2023-01-30T22:02:05.013Z,5.84
2023-01-30T22:04:40.022Z,5.80
2023-01-30T22:07:12.474Z,5.86
2023-01-30T22:09:45.038Z,5.89
2023-01-30T22:12:20.118Z,5.86
2023-01-30T22:14:52.735Z,5.94
2023-01-30T22:17:25.206Z,5.94
2023-01-30T22:19:58.302Z,5.92
2023-01-30T22:22:33.435Z,5.90
2023-01-30T22:25:06.294Z,5.92
2023-01-30T22:27:38.602Z,6.00
2023-01-30T22:30:14.072Z,6.06
2023-01-30T22:32:46.796Z,6.06
2023-01-30T22:35:19.998Z,6.11
2023-01-30T22:37:52.643Z,6.03
2023-01-30T22:40:25.012Z,6.05
2023-01-30T22:42:57.584Z,6.16
2023-01-30T22:45:30.165Z,6.25
2023-01-30T22:48:02.774Z,6.10
2023-01-30T22:50:35.173Z,6.07
2023-01-30T22:53:07.798Z,6.11
2023-01-30T22:55:40.470Z,6.07
2023-01-30T22:58:12.819Z,6.04
2023-01-30T23:00:45.160Z,5.98
2023-01-30T23:03:17.956Z,6.04
2023-01-30T23:05:59.346Z,6.17
2023-01-30T23:08:34.242Z,6.12
2023-01-30T23:11:13.304Z,6.15
2023-01-30T23:13:47.832Z,6.15
2023-01-30T23:16:22.729Z,6.13
2023-01-30T23:18:59.421Z,6.12
2023-01-30T23:21:36.109Z,6.00
2023-01-30T23:24:11.897Z,6.09
2023-01-30T23:26:46.212Z,6.12
2023-01-30T23:29:21.265Z,6.00
2023-01-30T23:31:53.660Z,6.08
2023-01-30T23:34:25.992Z,6.11
2023-01-30T23:36:59.336Z,6.16
2023-01-30T23:39:31.805Z,6.10
2023-01-30T23:42:04.262Z,6.02
2023-01-30T23:44:37.230Z,6.04
2023-01-30T23:47:10.324Z,5.98
2023-01-30T23:49:42.690Z,6.00
2023-01-30T23:52:15.193Z,6.01
2023-01-30T23:54:48.405Z,5.94
2023-01-30T23:57:20.827Z,5.98
2023-01-30T23:59:53.133Z,6.04
